Time;durP1;ratioP1;P1;durP2;ratioP2;P2;SDS_P1;SDS_P2;PMS_P1;PMS_P2;Temp;Humidity;BMP_temperature;BMP_pressure;BME280_temperature;BME280_humidity;BME280_pressure;Samples;Min_cycle;Max_cycle;Signal;HPM_P1;HPM_P2
2022/03/16 00:01:05;;;;;;;;;;;19.60;37.40;;;;;;5042309;28;20012;-56
2022/03/16 00:03:31;;;;;;;;;;;19.60;37.40;;;;;;5045630;28;19921;-53
2022/03/16 00:05:58;;;;;;;;;;;19.60;37.40;;;;;;5065268;28;19935;-52
2022/03/16 00:08:28;;;;;;;;;;;19.60;37.40;;;;;;5049218;28;20344;-54
2022/03/16 00:10:55;;;;;;;;;;;19.60;37.40;;;;;;5048898;28;19964;-50
2022/03/16 00:13:22;;;;;;;;;;;19.60;37.40;;;;;;5061154;28;19966;-51
2022/03/16 00:15:49;;;;;;;;;;;19.60;37.30;;;;;;5044654;28;19924;-51
2022/03/16 00:18:16;;;;;;;;;;;19.50;37.20;;;;;;5052205;28;19927;-51
2022/03/16 00:20:43;;;;;;;;;;;19.60;37.90;;;;;;5053185;28;19924;-48
2022/03/16 00:23:09;;;;;;;;;;;19.60;37.30;;;;;;5036669;28;19951;-54
2022/03/16 00:25:41;;;;;;;;;;;19.50;37.20;;;;;;5034807;28;19956;-51
2022/03/16 00:28:08;;;;;;;;;;;19.50;37.20;;;;;;5057386;28;20400;-51
2022/03/16 00:30:36;;;;;;;;;;;19.50;37.70;;;;;;5029651;28;19928;-51
2022/03/16 00:33:06;;;;;;;;;;;19.50;37.10;;;;;;5043070;28;19985;-51
2022/03/16 00:35:33;;;;;;;;;;;19.50;37.10;;;;;;5049560;28;19924;-51
2022/03/16 00:37:59;;;;;;;;;;;19.50;37.10;;;;;;5049484;28;20015;-53
2022/03/16 00:40:26;;;;;;;;;;;19.50;37.10;;;;;;5047136;28;19924;-54
2022/03/16 00:42:54;;;;;;;;;;;19.50;37.10;;;;;;5045216;28;20581;-52
2022/03/16 00:45:21;;;;;;;;;;;19.50;37.10;;;;;;5063470;28;20354;-51
2022/03/16 00:47:48;;;;;;;;;;;19.50;37.10;;;;;;5045526;28;19968;-52
2022/03/16 00:50:21;;;;;;;;;;;19.50;37.10;;;;;;5044365;28;20012;-49
2022/03/16 00:52:50;;;;;;;;;;;19.50;37.10;;;;;;5036625;28;20012;-50
2022/03/16 00:55:17;;;;;;;;;;;19.50;37.10;;;;;;5040704;28;19920;-53
2022/03/16 00:57:43;;;;;;;;;;;19.50;37.10;;;;;;5048023;28;19921;-50
2022/03/16 01:00:13;;;;;;;;;;;19.50;37.10;;;;;;5048287;28;19927;-46
2022/03/16 01:02:40;;;;;;;;;;;19.50;37.70;;;;;;5030745;28;19925;-54
2022/03/16 01:05:07;;;;;;;;;;;19.40;37.10;;;;;;5052107;28;19924;-51
2022/03/16 01:07:34;;;;;;;;;;;19.40;37.10;;;;;;5046923;28;20013;-51
2022/03/16 01:10:01;;;;;;;;;;;19.40;37.10;;;;;;5046480;28;20023;-50
2022/03/16 01:12:27;;;;;;;;;;;19.40;37.10;;;;;;5043170;28;19921;-54
2022/03/16 01:14:54;;;;;;;;;;;19.40;37.10;;;;;;5047939;28;19920;-52
2022/03/16 01:17:22;;;;;;;;;;;19.40;37.10;;;;;;5067110;28;20020;-49
2022/03/16 01:19:50;;;;;;;;;;;19.40;37.10;;;;;;5044949;28;19928;-50
2022/03/16 01:22:17;;;;;;;;;;;19.40;37.10;;;;;;5046291;28;19943;-53
2022/03/16 01:24:43;;;;;;;;;;;19.40;37.10;;;;;;5051553;28;19924;-53
2022/03/16 01:27:10;;;;;;;;;;;19.40;37.20;;;;;;5049215;28;20469;-53
2022/03/16 01:29:37;;;;;;;;;;;19.40;37.20;;;;;;5056691;28;19955;-53
2022/03/16 01:32:07;;;;;;;;;;;19.40;37.80;;;;;;5036406;28;20293;-57
2022/03/16 01:34:35;;;;;;;;;;;19.40;37.20;;;;;;5051880;28;20330;-53
2022/03/16 01:37:03;;;;;;;;;;;19.40;37.20;;;;;;5071042;28;20332;-51
2022/03/16 01:39:30;;;;;;;;;;;19.40;37.30;;;;;;5051570;28;20276;-50
2022/03/16 01:41:57;;;;;;;;;;;19.40;37.30;;;;;;5057526;28;19955;-56
2022/03/16 01:44:38;;;;;;;;;;;19.40;37.30;;;;;;5050356;28;20349;-52
2022/03/16 01:47:05;;;;;;;;;;;19.40;37.30;;;;;;5042733;28;19925;-54
2022/03/16 01:49:32;;;;;;;;;;;19.40;37.30;;;;;;5042753;28;19920;-51
2022/03/16 01:52:00;;;;;;;;;;;19.40;37.30;;;;;;5050790;28;19924;-51
2022/03/16 01:54:26;;;;;;;;;;;19.40;37.40;;;;;;5037168;28;19920;-53
2022/03/16 01:56:53;;;;;;;;;;;19.40;37.40;;;;;;5052404;28;19948;-51
2022/03/16 01:59:20;;;;;;;;;;;19.30;37.30;;;;;;5069468;28;19931;-57
2022/03/16 02:01:46;;;;;;;;;;;19.30;37.30;;;;;;5064731;28;19920;-50
2022/03/16 02:04:13;;;;;;;;;;;19.30;37.30;;;;;;5050788;28;19920;-50
2022/03/16 02:06:40;;;;;;;;;;;19.30;37.30;;;;;;5050449;28;19940;-52
2022/03/16 02:09:08;;;;;;;;;;;19.30;37.40;;;;;;5032578;28;19921;-50
2022/03/16 02:11:34;;;;;;;;;;;19.30;37.40;;;;;;5044899;28;19920;-56
2022/03/16 02:14:01;;;;;;;;;;;19.30;37.40;;;;;;5039622;28;20243;-56
2022/03/16 02:16:28;;;;;;;;;;;19.30;37.40;;;;;;5060587;28;19926;-54
2022/03/16 02:18:55;;;;;;;;;;;19.30;37.50;;;;;;5070141;28;20306;-52
2022/03/16 02:21:21;;;;;;;;;;;19.30;37.50;;;;;;5048503;28;19920;-51
2022/03/16 02:23:49;;;;;;;;;;;19.30;37.50;;;;;;5060517;28;19966;-52
2022/03/16 02:26:16;;;;;;;;;;;19.30;37.50;;;;;;5047948;28;20022;-53
2022/03/16 02:28:43;;;;;;;;;;;19.30;37.40;;;;;;5059632;28;20392;-54
2022/03/16 02:31:10;;;;;;;;;;;19.30;37.40;;;;;;5046739;28;20019;-51
2022/03/16 02:33:37;;;;;;;;;;;19.30;37.50;;;;;;5042149;28;19920;-52
2022/03/16 02:36:04;;;;;;;;;;;19.30;37.40;;;;;;5042555;28;20388;-53
2022/03/16 02:38:31;;;;;;;;;;;19.30;37.50;;;;;;5038786;28;19925;-47
2022/03/16 02:40:59;;;;;;;;;;;19.30;37.50;;;;;;5035321;28;19928;-48
2022/03/16 02:43:27;;;;;;;;;;;19.30;37.50;;;;;;5039654;28;20206;-54
2022/03/16 02:45:54;;;;;;;;;;;19.30;37.50;;;;;;5056015;28;19931;-49
2022/03/16 02:48:22;;;;;;;;;;;19.30;37.50;;;;;;5042561;28;19978;-56
2022/03/16 02:50:49;;;;;;;;;;;19.30;37.50;;;;;;5045952;28;19927;-50
2022/03/16 02:53:16;;;;;;;;;;;19.30;37.50;;;;;;5032315;28;19921;-54
2022/03/16 02:55:44;;;;;;;;;;;19.30;37.50;;;;;;5035114;28;19931;-56
2022/03/16 02:58:12;;;;;;;;;;;19.30;37.50;;;;;;5052739;28;19932;-49
2022/03/16 03:00:39;;;;;;;;;;;19.30;37.50;;;;;;5034336;28;20313;-55
2022/03/16 03:03:05;;;;;;;;;;;19.30;37.50;;;;;;5041924;28;19924;-47
2022/03/16 03:05:32;;;;;;;;;;;19.30;37.50;;;;;;5041935;28;20282;-48
2022/03/16 03:08:00;;;;;;;;;;;19.30;37.50;;;;;;5049305;28;20362;-47
2022/03/16 03:10:27;;;;;;;;;;;19.20;37.40;;;;;;5048454;28;20082;-48
2022/03/16 03:12:54;;;;;;;;;;;19.20;37.40;;;;;;5055202;28;20004;-52
2022/03/16 03:15:22;;;;;;;;;;;19.20;37.40;;;;;;5031155;28;19925;-53
2022/03/16 03:17:49;;;;;;;;;;;19.30;37.40;;;;;;5039377;28;20003;-49
2022/03/16 03:20:15;;;;;;;;;;;19.20;37.30;;;;;;5032620;28;19921;-50
2022/03/16 03:22:42;;;;;;;;;;;19.20;37.30;;;;;;5062892;28;20407;-52
2022/03/16 03:25:10;;;;;;;;;;;19.20;37.30;;;;;;5068404;28;19978;-54
2022/03/16 03:27:36;;;;;;;;;;;19.20;37.30;;;;;;5067373;28;19920;-51
2022/03/16 03:30:03;;;;;;;;;;;19.20;37.30;;;;;;5062626;28;19925;-48
2022/03/16 03:32:31;;;;;;;;;;;19.20;37.20;;;;;;5062021;28;19920;-52
2022/03/16 03:34:58;;;;;;;;;;;19.20;37.20;;;;;;5049771;28;20015;-52
2022/03/16 03:37:28;;;;;;;;;;;19.20;37.20;;;;;;5049826;28;19969;-51
2022/03/16 03:39:54;;;;;;;;;;;19.20;37.20;;;;;;5065102;28;19920;-53
2022/03/16 03:42:23;;;;;;;;;;;19.20;37.20;;;;;;5051390;28;20348;-49
2022/03/16 03:44:50;;;;;;;;;;;19.20;37.10;;;;;;5049861;28;19931;-52
2022/03/16 03:47:16;;;;;;;;;;;19.20;37.10;;;;;;5067855;28;20456;-53
2022/03/16 03:49:44;;;;;;;;;;;19.20;37.10;;;;;;5068349;28;19943;-52
2022/03/16 03:52:11;;;;;;;;;;;19.20;37.70;;;;;;5036988;28;19932;-49
2022/03/16 03:54:39;;;;;;;;;;;19.20;37.10;;;;;;5044748;28;19921;-49
2022/03/16 03:57:06;;;;;;;;;;;19.20;37.10;;;;;;5049601;28;19921;-52
2022/03/16 03:59:34;;;;;;;;;;;19.20;37.00;;;;;;5050197;28;20381;-53
2022/03/16 04:02:00;;;;;;;;;;;19.20;37.00;;;;;;5068056;28;20061;-54
2022/03/16 04:04:27;;;;;;;;;;;19.20;37.00;;;;;;5050373;28;19975;-54
2022/03/16 04:06:55;;;;;;;;;;;19.20;37.00;;;;;;5039474;28;19920;-54
2022/03/16 04:09:22;;;;;;;;;;;19.20;37.00;;;;;;5053169;28;20067;-57
2022/03/16 04:11:48;;;;;;;;;;;19.20;37.00;;;;;;5049627;28;19968;-53
2022/03/16 04:14:16;;;;;;;;;;;19.20;37.00;;;;;;5050121;28;19927;-53
2022/03/16 04:16:42;;;;;;;;;;;19.20;37.00;;;;;;5066618;28;19924;-58
2022/03/16 04:19:09;;;;;;;;;;;19.20;36.90;;;;;;5046111;28;19931;-49
2022/03/16 04:21:36;;;;;;;;;;;19.20;36.90;;;;;;5058321;28;19927;-51
2022/03/16 04:24:04;;;;;;;;;;;19.20;36.90;;;;;;5035310;28;20552;-53
2022/03/16 04:26:31;;;;;;;;;;;19.10;36.80;;;;;;5053081;28;19928;-52
2022/03/16 04:28:58;;;;;;;;;;;19.10;36.80;;;;;;5057938;28;20015;-53
2022/03/16 04:31:25;;;;;;;;;;;19.10;36.70;;;;;;5043357;28;19927;-54
2022/03/16 04:33:52;;;;;;;;;;;19.10;36.70;;;;;;5048547;28;19924;-51
2022/03/16 04:36:19;;;;;;;;;;;19.10;36.70;;;;;;5049498;28;19921;-51
2022/03/16 04:38:46;;;;;;;;;;;19.10;36.70;;;;;;5062554;28;20140;-58
2022/03/16 04:41:14;;;;;;;;;;;19.10;36.70;;;;;;5040641;28;19959;-49
2022/03/16 04:43:41;;;;;;;;;;;19.10;36.70;;;;;;5063291;28;19920;-50
2022/03/16 04:46:07;;;;;;;;;;;19.10;36.70;;;;;;5048467;28;20050;-57
2022/03/16 04:48:34;;;;;;;;;;;19.10;36.70;;;;;;5065451;28;19928;-54
2022/03/16 04:51:02;;;;;;;;;;;19.10;36.70;;;;;;5048274;28;19971;-51
2022/03/16 04:53:29;;;;;;;;;;;19.10;36.70;;;;;;5069200;28;20370;-52
2022/03/16 04:55:55;;;;;;;;;;;19.10;36.60;;;;;;5040469;28;19963;-53
2022/03/16 04:58:23;;;;;;;;;;;19.10;36.60;;;;;;5037342;28;19931;-52
2022/03/16 05:00:50;;;;;;;;;;;19.10;36.60;;;;;;5042917;28;19920;-54
2022/03/16 05:03:17;;;;;;;;;;;19.10;36.60;;;;;;5045053;28;19969;-54
2022/03/16 05:05:44;;;;;;;;;;;19.10;36.60;;;;;;5049960;28;20014;-53
2022/03/16 05:08:10;;;;;;;;;;;19.10;36.60;;;;;;5063778;28;20019;-54
2022/03/16 05:10:37;;;;;;;;;;;19.10;36.60;;;;;;5050734;28;19920;-53
2022/03/16 05:13:04;;;;;;;;;;;19.10;36.60;;;;;;5048727;28;19920;-52
2022/03/16 05:15:32;;;;;;;;;;;19.10;36.60;;;;;;5035366;28;19932;-52
2022/03/16 05:17:59;;;;;;;;;;;19.10;36.60;;;;;;5042791;28;19921;-58
2022/03/16 05:20:25;;;;;;;;;;;19.10;36.60;;;;;;5039950;28;20360;-53
2022/03/16 05:22:53;;;;;;;;;;;19.10;36.50;;;;;;5066039;28;19931;-54
2022/03/16 05:25:20;;;;;;;;;;;19.10;36.50;;;;;;5037698;28;19968;-53
2022/03/16 05:27:46;;;;;;;;;;;19.00;36.40;;;;;;5069258;28;19920;-54
2022/03/16 05:30:13;;;;;;;;;;;19.00;36.40;;;;;;5059898;28;19920;-55
2022/03/16 05:32:42;;;;;;;;;;;19.00;36.40;;;;;;5048471;28;19931;-54
2022/03/16 05:35:09;;;;;;;;;;;19.00;36.40;;;;;;5046482;28;20210;-53
2022/03/16 05:37:38;;;;;;;;;;;19.00;36.40;;;;;;5066127;28;19982;-54
2022/03/16 05:40:05;;;;;;;;;;;19.00;36.40;;;;;;5046882;28;19932;-47
2022/03/16 05:42:32;;;;;;;;;;;19.00;36.30;;;;;;5057986;28;19934;-50
2022/03/16 05:44:59;;;;;;;;;;;19.00;36.30;;;;;;5072342;28;19924;-54
2022/03/16 05:47:26;;;;;;;;;;;19.00;36.30;;;;;;5055027;28;19946;-47
2022/03/16 05:49:55;;;;;;;;;;;19.00;36.30;;;;;;5052376;28;20011;-50
2022/03/16 05:52:22;;;;;;;;;;;19.00;36.30;;;;;;5048740;28;20191;-54
2022/03/16 05:54:49;;;;;;;;;;;19.00;36.30;;;;;;5052695;28;19920;-50
2022/03/16 05:57:16;;;;;;;;;;;19.00;36.30;;;;;;5058463;28;19924;-53
2022/03/16 05:59:43;;;;;;;;;;;19.00;36.20;;;;;;5056964;28;19928;-53
2022/03/16 06:02:10;;;;;;;;;;;19.00;36.20;;;;;;5054344;28;19920;-54
2022/03/16 06:04:37;;;;;;;;;;;19.00;36.20;;;;;;5055114;28;19970;-57
2022/03/16 06:07:05;;;;;;;;;;;19.00;36.20;;;;;;5055820;28;20449;-49
2022/03/16 06:09:32;;;;;;;;;;;19.00;36.20;;;;;;5055541;28;20015;-47
2022/03/16 06:11:59;;;;;;;;;;;18.90;36.10;;;;;;5065018;28;20023;-47
2022/03/16 06:14:26;;;;;;;;;;;18.90;36.10;;;;;;5033174;28;19921;-52
2022/03/16 06:16:55;;;;;;;;;;;18.90;36.10;;;;;;5052726;28;19925;-52
2022/03/16 06:19:22;;;;;;;;;;;18.90;36.10;;;;;;5051104;28;19928;-50
2022/03/16 06:21:49;;;;;;;;;;;18.90;36.10;;;;;;5041379;28;19928;-51
2022/03/16 06:24:17;;;;;;;;;;;18.90;36.10;;;;;;5069584;28;20265;-49
2022/03/16 06:26:44;;;;;;;;;;;18.90;36.10;;;;;;5044546;28;19960;-49
2022/03/16 06:29:11;;;;;;;;;;;18.90;36.10;;;;;;5060538;28;19982;-51
2022/03/16 06:31:37;;;;;;;;;;;18.90;36.10;;;;;;5050687;28;19921;-53
2022/03/16 06:34:04;;;;;;;;;;;18.90;36.10;;;;;;5049556;28;19964;-52
2022/03/16 06:36:31;;;;;;;;;;;18.90;36.10;;;;;;5040220;28;19928;-52
2022/03/16 06:38:57;;;;;;;;;;;18.90;36.10;;;;;;5054538;28;19927;-55
2022/03/16 06:41:26;;;;;;;;;;;18.90;36.10;;;;;;5065415;28;20286;-52
2022/03/16 06:43:52;;;;;;;;;;;18.90;36.20;;;;;;5049954;28;19924;-50
2022/03/16 06:46:19;;;;;;;;;;;18.90;36.20;;;;;;5062492;28;20348;-56
2022/03/16 06:48:51;;;;;;;;;;;18.90;36.20;;;;;;5049523;28;20014;-56
2022/03/16 06:51:17;;;;;;;;;;;18.90;36.20;;;;;;5043692;28;19920;-53
2022/03/16 06:53:44;;;;;;;;;;;18.90;36.20;;;;;;5050092;28;20015;-54
2022/03/16 06:56:11;;;;;;;;;;;18.90;36.20;;;;;;5057102;28;19975;-58
2022/03/16 06:58:39;;;;;;;;;;;18.90;36.30;;;;;;5068303;28;20304;-54
2022/03/16 07:01:06;;;;;;;;;;;18.90;36.30;;;;;;5058725;28;19978;-57
2022/03/16 07:03:32;;;;;;;;;;;18.90;36.30;;;;;;5050645;28;19920;-48
2022/03/16 07:06:00;;;;;;;;;;;18.90;36.30;;;;;;5052924;28;19966;-50
2022/03/16 07:08:27;;;;;;;;;;;18.90;36.30;;;;;;5053598;28;20023;-52
2022/03/16 07:10:54;;;;;;;;;;;18.90;36.30;;;;;;5067827;28;19920;-50
2022/03/16 07:13:24;;;;;;;;;;;18.90;36.40;;;;;;5048604;28;19920;-48
2022/03/16 07:15:53;;;;;;;;;;;18.90;36.40;;;;;;5059413;28;20011;-53
2022/03/16 07:18:23;;;;;;;;;;;18.90;36.40;;;;;;5070766;28;19928;-53
2022/03/16 07:20:50;;;;;;;;;;;18.90;36.40;;;;;;5060861;28;20285;-56
2022/03/16 07:23:17;;;;;;;;;;;18.90;36.40;;;;;;5057864;28;19920;-57
2022/03/16 07:25:45;;;;;;;;;;;18.90;36.40;;;;;;5054661;28;19927;-49
2022/03/16 07:28:12;;;;;;;;;;;18.90;36.40;;;;;;5041232;28;20029;-54
2022/03/16 07:30:38;;;;;;;;;;;18.90;36.40;;;;;;5054662;28;19940;-56
2022/03/16 07:33:06;;;;;;;;;;;18.90;36.40;;;;;;5052132;28;19931;-54
2022/03/16 07:35:34;;;;;;;;;;;18.90;36.40;;;;;;5054311;28;20747;-55
2022/03/16 07:38:01;;;;;;;;;;;18.90;36.40;;;;;;5039599;28;20402;-54
2022/03/16 07:40:29;;;;;;;;;;;18.90;36.40;;;;;;5058747;28;19943;-54
2022/03/16 07:42:58;;;;;;;;;;;18.90;36.40;;;;;;5057270;28;19920;-53
2022/03/16 07:45:24;;;;;;;;;;;18.90;36.50;;;;;;5075787;28;19927;-56
2022/03/16 07:47:52;;;;;;;;;;;18.90;36.40;;;;;;5077526;28;19926;-47
2022/03/16 07:50:21;;;;;;;;;;;18.90;36.40;;;;;;5051902;28;19929;-47
2022/03/16 07:52:47;;;;;;;;;;;18.90;36.40;;;;;;5048258;28;19935;-46
2022/03/16 07:55:14;;;;;;;;;;;18.90;36.50;;;;;;5058197;28;20270;-48
2022/03/16 07:57:41;;;;;;;;;;;18.90;36.50;;;;;;5058032;28;20277;-47
2022/03/16 08:00:10;;;;;;;;;;;19.00;36.70;;;;;;5059592;28;19924;-45
2022/03/16 08:02:37;;;;;;;;;;;19.00;36.70;;;;;;5059572;28;19930;-44
2022/03/16 08:05:05;;;;;;;;;;;19.00;36.80;;;;;;5079589;28;19930;-44
2022/03/16 08:07:33;;;;;;;;;;;19.10;37.00;;;;;;5098671;28;19920;-46
2022/03/16 08:10:06;;;;;;;;;;;19.10;37.00;;;;;;5080036;28;19966;-48
2022/03/16 08:12:32;;;;;;;;;;;19.10;37.10;;;;;;5060068;28;19956;-47
2022/03/16 08:15:00;;;;;;;;;;;19.10;37.10;;;;;;5068414;28;19979;-45
2022/03/16 08:17:27;;;;;;;;;;;19.20;37.30;;;;;;5066053;28;19963;-44
2022/03/16 08:19:54;;;;;;;;;;;19.20;37.30;;;;;;5065851;28;20023;-46
2022/03/16 08:22:27;;;;;;;;;;;19.20;37.40;;;;;;5076930;28;19920;-45
2022/03/16 08:24:55;;;;;;;;;;;19.20;37.40;;;;;;5095287;28;19981;-48
2022/03/16 08:27:22;;;;;;;;;;;19.20;37.40;;;;;;5077510;28;19960;-45
2022/03/16 08:29:49;;;;;;;;;;;19.30;37.50;;;;;;5078375;28;19988;-44
2022/03/16 08:32:16;;;;;;;;;;;19.30;37.50;;;;;;5078983;28;20265;-45
2022/03/16 08:34:43;;;;;;;;;;;19.30;38.10;;;;;;5092250;28;20350;-44
2022/03/16 08:37:10;;;;;;;;;;;19.30;37.50;;;;;;5063635;28;19999;-45
2022/03/16 08:39:37;;;;;;;;;;;19.40;37.60;;;;;;5051710;28;19921;-47
2022/03/16 08:42:06;;;;;;;;;;;19.40;37.60;;;;;;5057917;28;19924;-46
2022/03/16 08:44:33;;;;;;;;;;;19.40;37.70;;;;;;5074279;28;19947;-44
2022/03/16 08:47:00;;;;;;;;;;;19.40;37.70;;;;;;5057608;28;19926;-45
2022/03/16 08:49:29;;;;;;;;;;;19.40;37.70;;;;;;5056139;28;19920;-53
2022/03/16 08:51:56;;;;;;;;;;;19.50;37.80;;;;;;5056585;28;19920;-45
2022/03/16 08:54:23;;;;;;;;;;;19.50;37.80;;;;;;5055348;28;19920;-45
2022/03/16 08:56:50;;;;;;;;;;;19.50;37.80;;;;;;5050500;28;19920;-45
2022/03/16 08:59:19;;;;;;;;;;;19.50;37.80;;;;;;5068229;28;19977;-45
2022/03/16 09:01:46;;;;;;;;;;;19.50;37.80;;;;;;5052501;28;19920;-45
2022/03/16 09:04:13;;;;;;;;;;;19.50;37.80;;;;;;5052373;28;20350;-45
2022/03/16 09:06:40;;;;;;;;;;;19.50;37.80;;;;;;5074502;28;20377;-46
2022/03/16 09:09:06;;;;;;;;;;;19.50;37.70;;;;;;5056521;28;20448;-48
2022/03/16 09:11:34;;;;;;;;;;;19.50;37.80;;;;;;5054728;28;20015;-45
2022/03/16 09:14:01;;;;;;;;;;;19.60;37.90;;;;;;5072661;28;20411;-47
2022/03/16 09:16:29;;;;;;;;;;;19.50;37.80;;;;;;5075392;28;19921;-44
2022/03/16 09:18:56;;;;;;;;;;;19.60;37.80;;;;;;5056596;28;19966;-44
2022/03/16 09:21:22;;;;;;;;;;;19.60;37.90;;;;;;5057378;28;19971;-45
2022/03/16 09:23:49;;;;;;;;;;;19.60;37.90;;;;;;5059507;28;19926;-45
2022/03/16 09:26:16;;;;;;;;;;;19.60;37.90;;;;;;5078318;28;19920;-45
2022/03/16 09:28:44;;;;;;;;;;;19.60;37.90;;;;;;5087243;28;19982;-46
2022/03/16 09:31:11;;;;;;;;;;;19.60;37.90;;;;;;5058887;28;19963;-46
2022/03/16 09:33:40;;;;;;;;;;;19.60;37.80;;;;;;5052030;28;20665;-45
2022/03/16 09:36:08;;;;;;;;;;;19.60;37.90;;;;;;5042442;28;20211;-45
2022/03/16 09:38:35;;;;;;;;;;;19.60;37.90;;;;;;5056749;28;19970;-45
2022/03/16 09:41:02;;;;;;;;;;;19.60;37.90;;;;;;5068874;28;19921;-59
2022/03/16 09:43:31;;;;;;;;;;;19.70;38.00;;;;;;5051755;28;19920;-53
2022/03/16 09:45:58;;;;;;;;;;;19.70;38.00;;;;;;5050402;28;20011;-50
2022/03/16 09:48:25;;;;;;;;;;;19.70;37.90;;;;;;5068842;28;19929;-47
2022/03/16 09:50:54;;;;;;;;;;;19.70;37.90;;;;;;5051477;28;19920;-44
2022/03/16 09:53:22;;;;;;;;;;;19.70;37.90;;;;;;5053151;28;19936;-44
2022/03/16 09:55:49;;;;;;;;;;;19.70;38.00;;;;;;5056001;28;19920;-47
2022/03/16 09:58:16;;;;;;;;;;;19.70;37.90;;;;;;5074764;28;19920;-49
2022/03/16 10:00:43;;;;;;;;;;;19.70;37.90;;;;;;5048309;28;19920;-48
2022/03/16 10:03:10;;;;;;;;;;;19.70;38.20;;;;;;5050553;28;19920;-44
2022/03/16 10:05:40;;;;;;;;;;;19.70;37.90;;;;;;5060593;28;19946;-44
2022/03/16 10:08:08;;;;;;;;;;;19.70;37.90;;;;;;5062618;28;19930;-44
2022/03/16 10:13:21;;;;;;;;;;;19.70;37.90;;;;;;5071569;28;20377;-45
2022/03/16 10:15:47;;;;;;;;;;;19.70;37.90;;;;;;5056576;28;19932;-51
2022/03/16 10:18:15;;;;;;;;;;;19.70;38.00;;;;;;5053857;28;20354;-43
2022/03/16 10:20:42;;;;;;;;;;;19.70;38.00;;;;;;5056751;28;19920;-45
2022/03/16 10:23:12;;;;;;;;;;;19.70;38.00;;;;;;5050978;28;20342;-44
2022/03/16 10:25:39;;;;;;;;;;;19.80;38.00;;;;;;5066308;28;19920;-47
2022/03/16 10:28:12;;;;;;;;;;;19.80;38.10;;;;;;5072616;28;19924;-45
2022/03/16 10:30:40;;;;;;;;;;;19.80;38.00;;;;;;5073657;28;19963;-44
2022/03/16 10:33:06;;;;;;;;;;;19.80;38.00;;;;;;5050649;28;19929;-44
2022/03/16 10:35:34;;;;;;;;;;;19.80;38.00;;;;;;5056082;28;19921;-47
2022/03/16 10:38:07;;;;;;;;;;;19.80;38.10;;;;;;5069619;28;19920;-47
2022/03/16 10:40:36;;;;;;;;;;;19.80;38.10;;;;;;5051453;28;20015;-45
2022/03/16 10:48:39;;;;;;;;;;;19.90;38.20;;;;;;5056996;28;20338;-45
2022/03/16 10:51:05;;;;;;;;;;;19.80;38.10;;;;;;5049194;28;19938;-46
2022/03/16 10:53:33;;;;;;;;;;;19.90;38.20;;;;;;5053916;28;19973;-43
2022/03/16 10:56:02;;;;;;;;;;;19.90;38.20;;;;;;5054562;28;20184;-44
2022/03/16 10:58:29;;;;;;;;;;;19.90;37.70;;;;;;5055443;28;19929;-45
2022/03/16 11:01:07;;;;;;;;;;;19.90;38.20;;;;;;5068537;28;19997;-44
2022/03/16 11:03:36;;;;;;;;;;;19.90;38.20;;;;;;5050485;28;19920;-46
2022/03/16 11:06:03;;;;;;;;;;;19.90;38.30;;;;;;5063587;28;19924;-48
2022/03/16 11:08:35;;;;;;;;;;;19.90;38.20;;;;;;5077401;28;19920;-45
2022/03/16 11:13:27;;;;;;;;;;;19.90;38.20;;;;;;5060947;28;20007;-47
2022/03/16 11:13:50;;;;;;;;;;;19.90;38.20;;;;;;5052645;28;19927;-47
2022/03/16 11:16:20;;;;;;;;;;;19.90;38.30;;;;;;5060855;28;19920;-46
2022/03/16 11:18:48;;;;;;;;;;;19.90;38.20;;;;;;5062414;28;19937;-44
2022/03/16 11:21:16;;;;;;;;;;;19.90;38.20;;;;;;5071880;28;19927;-48
2022/03/16 11:26:37;;;;;;;;;;;20.00;38.30;;;;;;5073872;28;19920;-44
2022/03/16 11:29:08;;;;;;;;;;;20.00;38.30;;;;;;5066115;28;19963;-44
2022/03/16 11:31:35;;;;;;;;;;;20.00;38.30;;;;;;5070253;28;19921;-44
2022/03/16 11:34:03;;;;;;;;;;;20.00;38.30;;;;;;5046616;28;20031;-44
2022/03/16 11:36:31;;;;;;;;;;;20.00;38.30;;;;;;5048570;28;20330;-46
2022/03/16 11:38:59;;;;;;;;;;;20.00;38.30;;;;;;5051040;28;20419;-44
2022/03/16 11:41:26;;;;;;;;;;;20.00;38.30;;;;;;5058048;28;20016;-45
2022/03/16 11:44:00;;;;;;;;;;;20.00;38.30;;;;;;5058181;28;20392;-44
2022/03/16 11:46:27;;;;;;;;;;;20.00;38.30;;;;;;5053272;28;19975;-44
2022/03/16 11:48:58;;;;;;;;;;;20.00;38.40;;;;;;5057251;28;20014;-45
2022/03/16 11:51:25;;;;;;;;;;;20.00;38.40;;;;;;5047838;28;19943;-48
2022/03/16 11:54:05;;;;;;;;;;;20.00;38.40;;;;;;5071282;28;19921;-45
2022/03/16 11:56:42;;;;;;;;;;;20.00;38.40;;;;;;5048614;28;19924;-46
2022/03/16 11:59:16;;;;;;;;;;;20.00;38.40;;;;;;5056617;28;19938;-53
2022/03/16 12:01:48;;;;;;;;;;;20.00;38.40;;;;;;5048941;28;19962;-48
2022/03/16 12:04:15;;;;;;;;;;;20.00;38.40;;;;;;5079067;28;19921;-47
2022/03/16 12:06:52;;;;;;;;;;;20.00;38.40;;;;;;5051041;28;19920;-49
2022/03/16 12:09:21;;;;;;;;;;;20.10;38.50;;;;;;5071964;28;20285;-44
2022/03/16 12:15:12;;;;;;;;;;;20.10;38.50;;;;;;5064686;28;19921;-45
2022/03/16 12:17:40;;;;;;;;;;;20.10;38.40;;;;;;5035134;28;19950;-45
2022/03/16 12:20:10;;;;;;;;;;;20.10;39.00;;;;;;5069674;28;19927;-44
2022/03/16 12:22:37;;;;;;;;;;;20.10;38.40;;;;;;5051314;28;19925;-44
2022/03/16 12:25:26;;;;;;;;;;;20.10;38.40;;;;;;5048362;28;20023;-45
2022/03/16 12:30:41;;;;;;;;;;;20.10;38.40;;;;;;5047058;28;20035;-44
2022/03/16 12:33:09;;;;;;;;;;;20.10;38.40;;;;;;5054937;28;19928;-46
2022/03/16 12:35:35;;;;;;;;;;;20.10;38.50;;;;;;5048984;28;20265;-48
2022/03/16 12:38:02;;;;;;;;;;;20.10;38.50;;;;;;5081216;28;19921;-46
2022/03/16 12:40:29;;;;;;;;;;;20.10;38.50;;;;;;5051015;28;19931;-48
2022/03/16 12:42:56;;;;;;;;;;;20.10;38.60;;;;;;5076778;28;19959;-46
2022/03/16 12:45:25;;;;;;;;;;;20.10;38.60;;;;;;5079196;28;19927;-43
2022/03/16 12:47:56;;;;;;;;;;;20.10;38.50;;;;;;5058743;28;19927;-45
2022/03/16 12:50:24;;;;;;;;;;;20.10;38.60;;;;;;5062235;28;19943;-43
2022/03/16 12:52:51;;;;;;;;;;;20.20;38.70;;;;;;5073780;28;19920;-45
2022/03/16 12:55:21;;;;;;;;;;;20.20;38.70;;;;;;5054291;28;19931;-44
2022/03/16 12:57:51;;;;;;;;;;;20.20;38.80;;;;;;5058235;28;19924;-44
2022/03/16 13:00:18;;;;;;;;;;;20.20;38.80;;;;;;5063699;28;19924;-48
2022/03/16 13:02:47;;;;;;;;;;;20.20;38.80;;;;;;5076546;28;19927;-49
2022/03/16 13:05:15;;;;;;;;;;;20.20;38.80;;;;;;5077686;28;19970;-51
2022/03/16 13:07:43;;;;;;;;;;;20.20;38.80;;;;;;5078715;28;20014;-51
2022/03/16 13:10:10;;;;;;;;;;;20.20;38.80;;;;;;5076021;28;19920;-44
2022/03/16 13:12:39;;;;;;;;;;;20.20;38.90;;;;;;5076768;28;19927;-45
2022/03/16 13:15:06;;;;;;;;;;;20.20;38.90;;;;;;5067795;28;19939;-44
2022/03/16 13:17:36;;;;;;;;;;;20.20;38.90;;;;;;5056577;28;19921;-51
2022/03/16 13:20:03;;;;;;;;;;;20.20;38.90;;;;;;5056880;28;19966;-47
2022/03/16 13:22:30;;;;;;;;;;;20.20;38.90;;;;;;5059342;28;19956;-51
2022/03/16 13:24:58;;;;;;;;;;;20.20;39.00;;;;;;5078574;28;19920;-49
2022/03/16 13:27:26;;;;;;;;;;;20.20;39.00;;;;;;5065306;28;19920;-48
2022/03/16 13:29:54;;;;;;;;;;;20.20;39.00;;;;;;5058798;28;19921;-45
2022/03/16 13:32:27;;;;;;;;;;;20.20;39.00;;;;;;5057188;28;20023;-47
2022/03/16 13:34:54;;;;;;;;;;;20.30;39.10;;;;;;5079773;28;19930;-47
2022/03/16 13:37:21;;;;;;;;;;;20.30;39.20;;;;;;5063307;28;19921;-46
2022/03/16 13:39:55;;;;;;;;;;;20.30;39.20;;;;;;5060547;28;20018;-45
2022/03/16 13:42:26;;;;;;;;;;;20.30;39.20;;;;;;5076269;28;19926;-45
2022/03/16 13:44:53;;;;;;;;;;;20.30;39.20;;;;;;5077330;28;19963;-45
2022/03/16 13:47:23;;;;;;;;;;;20.30;39.20;;;;;;5065657;28;19920;-48
2022/03/16 13:49:51;;;;;;;;;;;20.30;39.20;;;;;;5057940;28;19920;-45
2022/03/16 13:52:18;;;;;;;;;;;20.30;39.30;;;;;;5053624;28;19960;-49
2022/03/16 13:54:45;;;;;;;;;;;20.30;39.30;;;;;;5041322;28;19921;-45
2022/03/16 13:57:13;;;;;;;;;;;20.30;39.20;;;;;;5057677;28;19992;-49
2022/03/16 13:59:41;;;;;;;;;;;20.30;39.20;;;;;;5066559;28;19931;-44
2022/03/16 14:02:09;;;;;;;;;;;20.30;39.20;;;;;;5059659;28;19931;-45
2022/03/16 14:04:37;;;;;;;;;;;20.30;39.20;;;;;;5055067;28;20427;-44
2022/03/16 14:07:17;;;;;;;;;;;20.30;39.20;;;;;;5055622;28;20018;-45
2022/03/16 14:09:44;;;;;;;;;;;20.30;39.20;;;;;;5073291;28;19921;-46
2022/03/16 14:12:14;;;;;;;;;;;20.30;39.30;;;;;;5053887;28;19950;-44
2022/03/16 14:14:44;;;;;;;;;;;20.30;39.30;;;;;;5054766;28;20012;-47
2022/03/16 14:17:11;;;;;;;;;;;20.30;39.30;;;;;;5042227;28;19920;-44
2022/03/16 14:19:37;;;;;;;;;;;20.30;39.30;;;;;;5070886;28;20311;-44
2022/03/16 14:22:04;;;;;;;;;;;20.30;39.30;;;;;;5062944;28;19956;-44
2022/03/16 14:24:31;;;;;;;;;;;20.30;39.30;;;;;;5061333;28;19980;-46
2022/03/16 14:27:15;;;;;;;;;;;20.30;39.30;;;;;;5057728;28;19974;-48
2022/03/16 14:29:44;;;;;;;;;;;20.30;39.30;;;;;;5057777;28;19986;-44
2022/03/16 14:32:12;;;;;;;;;;;20.30;39.30;;;;;;5056514;28;20384;-50
2022/03/16 14:34:39;;;;;;;;;;;20.30;39.30;;;;;;5054705;28;19928;-48
2022/03/16 14:37:06;;;;;;;;;;;20.30;39.40;;;;;;5055043;28;20237;-52